aviador You're here:

K0CO Decoded Metar

BERTHOUD PASS in CO, USA
Report Time2017-11-20 22:30:00
UTC Time2017-11-20 22:52:02
Flight Rules vfr VFR
Wind310° at 23 Gusting to 30 kt
W.Rank310° ranks 2
Current wind is above 310° avg. (20.1)
Visibility9999 m
Phenomena:N/A
Clouds:N/A
Expected CloudBase > 2,400 ft AGL from Temp-Dew spread
CeilingNone
Temp-5°C (ISA +7)
Dew Point-11°C (63% RH)
AAT-16.4°C
QNH1021 hPa
Density Alt14,072 ft
Elevation13,494 ft
Report Wrong Elevation
Raw Report
METAR K0CO 202230Z AUTO 31023G30KT 10SM CLR M05/M11 A3015 RMK AO2=

Extra information for K0CO:More info

Metar Taf Metar & Taf Last 4 Metars F.Rules Stats Wind Profile Meteogram Temp Stats Airport Information Weather charts Add Link Nearby VenuesMetar ALERT Operation Metar Decoded Social comments

AIRNAV info for K0CO